- বাংলা English

  **HEAVY RAINFALL MAY OCCUR AT PLACES OVER BARISAL, KHULNA, DHAKA, SYLHET AND CHITTAGONG DIVISIONS ** Phone: +880 2 9135742, 9123838, 9141437 | Fax: +880 2  9119230, 9103908 | E-mail: info@bmd.gov.bd , swc@bmd.gov.bd   | IVR: 1090  ****

TAF

TAF VGHS 240500Z 2406/2512 16008KT 3500HZ SCT015 BKN100 TEMPO 2409/2415 24020G30KT 2000RA/TSRA BKN008 FEW025CB OVC090 BECMG 2416/2418 12008KT 3500 HZ SCT012 BKN100 TEMPO 2420/2503 18020G30KT 2000RA/TSRA BKN007 FEW025CB OVC090 BECMG 2505/2507 16008KT 3500 HZ SCT015 BKN100=

TAF VGEG 240500Z 2406/2512 17012KT 4000 HZ SCT015 BKN100
  TEMPO 2408/2414 18015G25KT 1500 RA/TSRA BKN007 FEW025CB OVC090
  BECMG 2415/2417 16008KT 3500 HZ SCT015 BKN100
  TEMPO 2500/2508 17020G30KT 1200 RA/TSRA BKN007 FEW025CB OVC090
  BECMG 2509/2511 17012KT 4000 HZ SCT015 BKN100=

TAF VGSY 240400Z 240400Z 2406/2512 13005KT 4000HZ SCT015 BKN100 BECMG 2423/2501 06004KT 3000HZ SCT012 BKN100 BECMG 2503/2505 09005KT 3500HZ SCT015 BKN100 TEMPO 2406/2506 27025G35KT 1500RA/TSRA BKN006 FEW025CB OVC080=